sensor_id;sensor_type;location;lat;lon;timestamp;P1;durP1;ratioP1;P2;durP2;ratioP2
9156;SDS011;4613;48.392;9.998;2023-05-07T00:00:26;2.20;;;1.83;;
9156;SDS011;4613;48.392;9.998;2023-05-07T00:03:15;2.00;;;1.80;;
9156;SDS011;4613;48.392;9.998;2023-05-07T00:06:05;3.13;;;2.00;;
9156;SDS011;4613;48.392;9.998;2023-05-07T00:08:56;2.30;;;2.10;;
9156;SDS011;4613;48.392;9.998;2023-05-07T00:11:46;2.07;;;1.87;;
9156;SDS011;4613;48.392;9.998;2023-05-07T00:14:35;2.00;;;1.80;;
9156;SDS011;4613;48.392;9.998;2023-05-07T00:17:24;2.23;;;2.00;;
9156;SDS011;4613;48.392;9.998;2023-05-07T00:20:14;2.07;;;1.87;;
9156;SDS011;4613;48.392;9.998;2023-05-07T00:23:04;3.53;;;2.10;;
9156;SDS011;4613;48.392;9.998;2023-05-07T00:25:53;1.90;;;1.70;;
9156;SDS011;4613;48.392;9.998;2023-05-07T00:28:43;1.87;;;1.77;;
9156;SDS011;4613;48.392;9.998;2023-05-07T00:31:32;1.80;;;1.70;;
9156;SDS011;4613;48.392;9.998;2023-05-07T00:34:22;1.83;;;1.73;;
9156;SDS011;4613;48.392;9.998;2023-05-07T00:37:11;1.90;;;1.80;;
9156;SDS011;4613;48.392;9.998;2023-05-07T00:40:01;2.30;;;2.10;;
9156;SDS011;4613;48.392;9.998;2023-05-07T00:42:53;3.03;;;2.10;;
9156;SDS011;4613;48.392;9.998;2023-05-07T00:45:46;2.17;;;1.97;;
9156;SDS011;4613;48.392;9.998;2023-05-07T00:48:35;2.93;;;2.10;;
9156;SDS011;4613;48.392;9.998;2023-05-07T00:51:25;2.20;;;2.00;;
9156;SDS011;4613;48.392;9.998;2023-05-07T00:54:16;2.67;;;2.07;;
9156;SDS011;4613;48.392;9.998;2023-05-07T00:57:05;5.40;;;1.70;;
9156;SDS011;4613;48.392;9.998;2023-05-07T00:59:55;1.80;;;1.70;;
9156;SDS011;4613;48.392;9.998;2023-05-07T01:02:44;2.90;;;1.90;;
9156;SDS011;4613;48.392;9.998;2023-05-07T01:05:33;1.80;;;1.70;;
9156;SDS011;4613;48.392;9.998;2023-05-07T01:08:23;1.70;;;1.60;;
9156;SDS011;4613;48.392;9.998;2023-05-07T01:11:15;1.80;;;1.70;;
9156;SDS011;4613;48.392;9.998;2023-05-07T01:14:09;2.97;;;1.77;;
9156;SDS011;4613;48.392;9.998;2023-05-07T01:16:58;2.37;;;1.83;;
9156;SDS011;4613;48.392;9.998;2023-05-07T01:19:48;2.17;;;1.97;;
9156;SDS011;4613;48.392;9.998;2023-05-07T01:22:38;2.10;;;1.90;;
9156;SDS011;4613;48.392;9.998;2023-05-07T01:25:28;2.23;;;2.00;;
9156;SDS011;4613;48.392;9.998;2023-05-07T01:28:22;1.73;;;1.60;;
9156;SDS011;4613;48.392;9.998;2023-05-07T01:31:12;2.00;;;1.80;;
9156;SDS011;4613;48.392;9.998;2023-05-07T01:34:03;2.23;;;2.03;;
9156;SDS011;4613;48.392;9.998;2023-05-07T01:36:55;2.50;;;2.07;;
9156;SDS011;4613;48.392;9.998;2023-05-07T01:39:47;2.20;;;2.00;;
9156;SDS011;4613;48.392;9.998;2023-05-07T01:42:36;2.20;;;2.00;;
9156;SDS011;4613;48.392;9.998;2023-05-07T01:45:26;6.40;;;2.10;;
9156;SDS011;4613;48.392;9.998;2023-05-07T01:48:16;2.50;;;2.00;;
9156;SDS011;4613;48.392;9.998;2023-05-07T01:51:07;4.77;;;2.13;;
9156;SDS011;4613;48.392;9.998;2023-05-07T01:53:57;2.53;;;2.33;;
9156;SDS011;4613;48.392;9.998;2023-05-07T01:56:47;2.07;;;1.90;;
9156;SDS011;4613;48.392;9.998;2023-05-07T01:59:38;2.17;;;1.97;;
9156;SDS011;4613;48.392;9.998;2023-05-07T02:02:27;2.20;;;2.00;;
9156;SDS011;4613;48.392;9.998;2023-05-07T02:05:18;2.30;;;2.10;;
9156;SDS011;4613;48.392;9.998;2023-05-07T02:08:11;1.90;;;1.80;;
9156;SDS011;4613;48.392;9.998;2023-05-07T02:11:01;1.90;;;1.80;;
9156;SDS011;4613;48.392;9.998;2023-05-07T02:13:51;2.20;;;2.00;;
9156;SDS011;4613;48.392;9.998;2023-05-07T02:16:42;2.17;;;1.97;;
9156;SDS011;4613;48.392;9.998;2023-05-07T02:19:33;3.83;;;2.03;;
9156;SDS011;4613;48.392;9.998;2023-05-07T02:22:23;2.23;;;2.03;;
9156;SDS011;4613;48.392;9.998;2023-05-07T02:25:12;2.10;;;1.93;;
9156;SDS011;4613;48.392;9.998;2023-05-07T02:28:02;4.23;;;2.20;;
9156;SDS011;4613;48.392;9.998;2023-05-07T02:31:03;2.13;;;1.93;;
9156;SDS011;4613;48.392;9.998;2023-05-07T02:33:52;1.97;;;1.77;;
9156;SDS011;4613;48.392;9.998;2023-05-07T02:36:42;4.30;;;1.80;;
9156;SDS011;4613;48.392;9.998;2023-05-07T02:39:35;2.27;;;2.00;;
9156;SDS011;4613;48.392;9.998;2023-05-07T02:42:25;2.20;;;2.00;;
9156;SDS011;4613;48.392;9.998;2023-05-07T02:45:15;2.17;;;1.97;;
9156;SDS011;4613;48.392;9.998;2023-05-07T02:48:05;3.37;;;2.20;;
9156;SDS011;4613;48.392;9.998;2023-05-07T02:50:55;3.33;;;1.97;;
9156;SDS011;4613;48.392;9.998;2023-05-07T02:53:44;1.80;;;1.70;;
9156;SDS011;4613;48.392;9.998;2023-05-07T02:56:34;2.83;;;2.00;;
9156;SDS011;4613;48.392;9.998;2023-05-07T02:59:24;2.10;;;1.90;;
9156;SDS011;4613;48.392;9.998;2023-05-07T03:02:15;2.20;;;2.00;;
9156;SDS011;4613;48.392;9.998;2023-05-07T03:05:05;3.50;;;1.80;;
9156;SDS011;4613;48.392;9.998;2023-05-07T03:07:54;2.10;;;1.90;;
9156;SDS011;4613;48.392;9.998;2023-05-07T03:10:44;2.20;;;2.00;;
9156;SDS011;4613;48.392;9.998;2023-05-07T03:13:33;1.97;;;1.73;;
9156;SDS011;4613;48.392;9.998;2023-05-07T03:16:23;2.50;;;1.80;;
9156;SDS011;4613;48.392;9.998;2023-05-07T03:19:12;1.90;;;1.80;;
9156;SDS011;4613;48.392;9.998;2023-05-07T03:22:01;2.30;;;2.10;;
9156;SDS011;4613;48.392;9.998;2023-05-07T03:24:50;2.87;;;2.07;;
9156;SDS011;4613;48.392;9.998;2023-05-07T03:27:40;2.30;;;2.10;;
9156;SDS011;4613;48.392;9.998;2023-05-07T03:30:30;2.10;;;1.90;;
9156;SDS011;4613;48.392;9.998;2023-05-07T03:33:19;2.00;;;1.90;;
9156;SDS011;4613;48.392;9.998;2023-05-07T03:36:10;3.40;;;1.97;;
9156;SDS011;4613;48.392;9.998;2023-05-07T03:38:59;3.87;;;2.10;;
9156;SDS011;4613;48.392;9.998;2023-05-07T03:41:57;2.10;;;1.90;;
9156;SDS011;4613;48.392;9.998;2023-05-07T03:44:47;2.33;;;2.13;;
9156;SDS011;4613;48.392;9.998;2023-05-07T03:47:37;2.20;;;2.00;;
9156;SDS011;4613;48.392;9.998;2023-05-07T03:50:26;1.90;;;1.80;;
9156;SDS011;4613;48.392;9.998;2023-05-07T03:53:16;2.10;;;2.00;;
9156;SDS011;4613;48.392;9.998;2023-05-07T03:56:05;2.10;;;1.90;;
9156;SDS011;4613;48.392;9.998;2023-05-07T03:58:59;2.27;;;2.07;;
9156;SDS011;4613;48.392;9.998;2023-05-07T04:01:49;2.07;;;1.90;;
9156;SDS011;4613;48.392;9.998;2023-05-07T04:04:43;2.23;;;2.03;;
9156;SDS011;4613;48.392;9.998;2023-05-07T04:07:33;2.97;;;2.20;;
9156;SDS011;4613;48.392;9.998;2023-05-07T04:10:23;4.43;;;2.30;;
9156;SDS011;4613;48.392;9.998;2023-05-07T04:13:16;2.43;;;2.10;;
9156;SDS011;4613;48.392;9.998;2023-05-07T04:16:06;2.43;;;2.23;;
9156;SDS011;4613;48.392;9.998;2023-05-07T04:18:58;2.30;;;2.10;;
9156;SDS011;4613;48.392;9.998;2023-05-07T04:21:48;2.07;;;1.87;;
9156;SDS011;4613;48.392;9.998;2023-05-07T04:24:37;2.40;;;2.20;;
9156;SDS011;4613;48.392;9.998;2023-05-07T04:27:26;4.33;;;2.60;;
9156;SDS011;4613;48.392;9.998;2023-05-07T04:30:17;2.73;;;2.37;;
9156;SDS011;4613;48.392;9.998;2023-05-07T04:33:07;2.10;;;1.90;;
9156;SDS011;4613;48.392;9.998;2023-05-07T04:35:57;2.63;;;2.37;;
9156;SDS011;4613;48.392;9.998;2023-05-07T04:38:51;3.23;;;2.50;;
9156;SDS011;4613;48.392;9.998;2023-05-07T04:41:42;2.20;;;2.00;;
9156;SDS011;4613;48.392;9.998;2023-05-07T04:44:32;2.73;;;2.40;;
9156;SDS011;4613;48.392;9.998;2023-05-07T04:47:23;2.73;;;2.30;;
9156;SDS011;4613;48.392;9.998;2023-05-07T04:50:13;2.40;;;2.20;;
9156;SDS011;4613;48.392;9.998;2023-05-07T04:53:04;3.10;;;2.37;;
9156;SDS011;4613;48.392;9.998;2023-05-07T04:55:56;2.97;;;2.20;;
9156;SDS011;4613;48.392;9.998;2023-05-07T04:58:47;2.27;;;2.00;;
9156;SDS011;4613;48.392;9.998;2023-05-07T05:01:38;2.10;;;1.90;;
9156;SDS011;4613;48.392;9.998;2023-05-07T05:04:28;2.60;;;2.20;;
9156;SDS011;4613;48.392;9.998;2023-05-07T05:07:18;2.50;;;2.13;;
9156;SDS011;4613;48.392;9.998;2023-05-07T05:10:08;2.37;;;1.90;;
9156;SDS011;4613;48.392;9.998;2023-05-07T05:13:00;1.73;;;1.63;;
9156;SDS011;4613;48.392;9.998;2023-05-07T05:15:50;2.23;;;2.03;;
9156;SDS011;4613;48.392;9.998;2023-05-07T05:18:39;2.10;;;1.90;;
9156;SDS011;4613;48.392;9.998;2023-05-07T05:21:31;1.87;;;1.77;;
9156;SDS011;4613;48.392;9.998;2023-05-07T05:24:26;2.53;;;2.13;;
9156;SDS011;4613;48.392;9.998;2023-05-07T05:27:16;2.13;;;1.93;;
9156;SDS011;4613;48.392;9.998;2023-05-07T05:30:06;3.40;;;1.83;;
9156;SDS011;4613;48.392;9.998;2023-05-07T05:32:57;2.00;;;1.90;;
9156;SDS011;4613;48.392;9.998;2023-05-07T05:35:46;2.10;;;1.93;;
9156;SDS011;4613;48.392;9.998;2023-05-07T05:38:36;2.10;;;1.90;;
9156;SDS011;4613;48.392;9.998;2023-05-07T05:41:25;2.27;;;2.00;;
9156;SDS011;4613;48.392;9.998;2023-05-07T05:44:15;2.20;;;2.00;;
9156;SDS011;4613;48.392;9.998;2023-05-07T05:47:05;1.93;;;1.83;;
9156;SDS011;4613;48.392;9.998;2023-05-07T05:49:55;2.57;;;2.37;;
9156;SDS011;4613;48.392;9.998;2023-05-07T05:52:44;2.40;;;2.20;;
9156;SDS011;4613;48.392;9.998;2023-05-07T05:55:34;3.50;;;2.20;;
9156;SDS011;4613;48.392;9.998;2023-05-07T05:58:24;2.40;;;2.20;;
9156;SDS011;4613;48.392;9.998;2023-05-07T06:01:19;2.30;;;2.10;;
9156;SDS011;4613;48.392;9.998;2023-05-07T06:04:10;2.40;;;2.20;;
9156;SDS011;4613;48.392;9.998;2023-05-07T06:07:00;2.30;;;2.10;;
9156;SDS011;4613;48.392;9.998;2023-05-07T06:12:41;2.60;;;2.30;;
9156;SDS011;4613;48.392;9.998;2023-05-07T06:15:30;2.43;;;2.23;;
9156;SDS011;4613;48.392;9.998;2023-05-07T06:18:24;2.83;;;2.43;;
9156;SDS011;4613;48.392;9.998;2023-05-07T06:21:14;2.83;;;2.10;;
9156;SDS011;4613;48.392;9.998;2023-05-07T06:24:03;2.60;;;2.40;;
9156;SDS011;4613;48.392;9.998;2023-05-07T06:26:53;2.40;;;2.20;;
9156;SDS011;4613;48.392;9.998;2023-05-07T06:29:43;2.60;;;2.40;;
9156;SDS011;4613;48.392;9.998;2023-05-07T06:32:37;2.37;;;2.17;;
9156;SDS011;4613;48.392;9.998;2023-05-07T06:35:28;2.90;;;2.60;;
9156;SDS011;4613;48.392;9.998;2023-05-07T06:38:18;2.60;;;2.10;;
9156;SDS011;4613;48.392;9.998;2023-05-07T06:41:08;2.90;;;2.57;;
9156;SDS011;4613;48.392;9.998;2023-05-07T06:44:01;2.40;;;2.20;;
9156;SDS011;4613;48.392;9.998;2023-05-07T06:47:00;2.93;;;2.30;;
9156;SDS011;4613;48.392;9.998;2023-05-07T06:49:50;4.47;;;2.70;;
9156;SDS011;4613;48.392;9.998;2023-05-07T06:52:42;2.60;;;2.40;;
9156;SDS011;4613;48.392;9.998;2023-05-07T06:55:33;2.23;;;2.13;;
9156;SDS011;4613;48.392;9.998;2023-05-07T06:58:22;2.60;;;2.40;;
9156;SDS011;4613;48.392;9.998;2023-05-07T07:01:12;2.67;;;2.47;;
9156;SDS011;4613;48.392;9.998;2023-05-07T07:04:01;2.90;;;2.70;;
9156;SDS011;4613;48.392;9.998;2023-05-07T07:06:53;3.33;;;3.00;;
9156;SDS011;4613;48.392;9.998;2023-05-07T07:09:43;3.17;;;2.87;;
9156;SDS011;4613;48.392;9.998;2023-05-07T07:12:33;4.40;;;3.20;;
9156;SDS011;4613;48.392;9.998;2023-05-07T07:15:23;8.40;;;3.77;;
9156;SDS011;4613;48.392;9.998;2023-05-07T07:18:14;2.97;;;2.67;;
9156;SDS011;4613;48.392;9.998;2023-05-07T07:21:04;3.70;;;3.27;;
9156;SDS011;4613;48.392;9.998;2023-05-07T07:23:53;5.67;;;3.30;;
9156;SDS011;4613;48.392;9.998;2023-05-07T07:26:43;3.90;;;2.87;;
9156;SDS011;4613;48.392;9.998;2023-05-07T07:29:33;2.63;;;2.43;;
9156;SDS011;4613;48.392;9.998;2023-05-07T07:32:22;2.67;;;2.47;;
9156;SDS011;4613;48.392;9.998;2023-05-07T07:35:12;3.00;;;2.60;;
9156;SDS011;4613;48.392;9.998;2023-05-07T07:38:02;3.63;;;2.70;;
9156;SDS011;4613;48.392;9.998;2023-05-07T07:40:52;3.93;;;2.77;;
9156;SDS011;4613;48.392;9.998;2023-05-07T07:43:41;2.97;;;2.77;;
9156;SDS011;4613;48.392;9.998;2023-05-07T07:46:31;3.07;;;2.60;;
9156;SDS011;4613;48.392;9.998;2023-05-07T07:49:20;2.70;;;2.50;;
9156;SDS011;4613;48.392;9.998;2023-05-07T07:52:10;3.30;;;3.00;;
9156;SDS011;4613;48.392;9.998;2023-05-07T07:55:01;4.63;;;3.03;;
9156;SDS011;4613;48.392;9.998;2023-05-07T07:57:50;3.33;;;2.83;;
9156;SDS011;4613;48.392;9.998;2023-05-07T08:00:40;2.93;;;2.70;;
9156;SDS011;4613;48.392;9.998;2023-05-07T08:03:30;2.80;;;2.60;;
9156;SDS011;4613;48.392;9.998;2023-05-07T08:06:21;3.00;;;2.70;;
9156;SDS011;4613;48.392;9.998;2023-05-07T08:09:11;2.87;;;2.60;;
9156;SDS011;4613;48.392;9.998;2023-05-07T08:12:03;2.87;;;2.60;;
9156;SDS011;4613;48.392;9.998;2023-05-07T08:14:55;2.80;;;2.60;;
9156;SDS011;4613;48.392;9.998;2023-05-07T08:17:45;2.53;;;2.33;;
9156;SDS011;4613;48.392;9.998;2023-05-07T08:20:34;3.20;;;2.70;;
9156;SDS011;4613;48.392;9.998;2023-05-07T08:23:28;3.20;;;2.73;;
9156;SDS011;4613;48.392;9.998;2023-05-07T08:26:18;2.90;;;2.60;;
9156;SDS011;4613;48.392;9.998;2023-05-07T08:29:09;3.30;;;3.00;;
9156;SDS011;4613;48.392;9.998;2023-05-07T08:31:59;2.70;;;2.40;;
9156;SDS011;4613;48.392;9.998;2023-05-07T08:34:48;2.70;;;2.50;;
9156;SDS011;4613;48.392;9.998;2023-05-07T08:37:38;2.90;;;2.70;;
9156;SDS011;4613;48.392;9.998;2023-05-07T08:40:28;2.67;;;2.47;;
9156;SDS011;4613;48.392;9.998;2023-05-07T08:43:22;2.63;;;2.40;;
9156;SDS011;4613;48.392;9.998;2023-05-07T08:46:21;2.60;;;2.40;;
9156;SDS011;4613;48.392;9.998;2023-05-07T08:49:13;3.83;;;2.53;;
9156;SDS011;4613;48.392;9.998;2023-05-07T08:52:04;2.67;;;2.47;;
9156;SDS011;4613;48.392;9.998;2023-05-07T08:54:54;3.23;;;2.93;;
9156;SDS011;4613;48.392;9.998;2023-05-07T08:57:46;3.20;;;2.80;;
9156;SDS011;4613;48.392;9.998;2023-05-07T09:00:37;3.10;;;2.80;;
9156;SDS011;4613;48.392;9.998;2023-05-07T09:03:30;3.87;;;2.70;;
9156;SDS011;4613;48.392;9.998;2023-05-07T09:06:20;3.07;;;2.77;;
9156;SDS011;4613;48.392;9.998;2023-05-07T09:09:10;2.60;;;2.40;;
9156;SDS011;4613;48.392;9.998;2023-05-07T09:12:05;2.40;;;2.20;;
9156;SDS011;4613;48.392;9.998;2023-05-07T09:14:56;2.90;;;2.60;;
9156;SDS011;4613;48.392;9.998;2023-05-07T09:17:47;4.20;;;2.70;;
9156;SDS011;4613;48.392;9.998;2023-05-07T09:20:37;2.33;;;2.23;;
9156;SDS011;4613;48.392;9.998;2023-05-07T09:23:27;2.60;;;2.40;;
9156;SDS011;4613;48.392;9.998;2023-05-07T09:26:16;2.80;;;2.60;;
9156;SDS011;4613;48.392;9.998;2023-05-07T09:29:07;2.50;;;2.30;;
9156;SDS011;4613;48.392;9.998;2023-05-07T09:31:58;2.53;;;2.33;;
9156;SDS011;4613;48.392;9.998;2023-05-07T09:34:47;2.70;;;2.50;;
9156;SDS011;4613;48.392;9.998;2023-05-07T09:37:40;3.43;;;2.70;;
9156;SDS011;4613;48.392;9.998;2023-05-07T09:40:30;2.73;;;2.43;;
9156;SDS011;4613;48.392;9.998;2023-05-07T09:43:24;3.07;;;2.77;;
9156;SDS011;4613;48.392;9.998;2023-05-07T09:46:19;3.23;;;2.67;;
9156;SDS011;4613;48.392;9.998;2023-05-07T09:49:18;2.57;;;2.30;;
9156;SDS011;4613;48.392;9.998;2023-05-07T09:52:11;2.50;;;2.30;;
9156;SDS011;4613;48.392;9.998;2023-05-07T09:55:08;2.57;;;2.37;;
9156;SDS011;4613;48.392;9.998;2023-05-07T09:57:59;2.70;;;2.50;;
9156;SDS011;4613;48.392;9.998;2023-05-07T10:00:50;2.73;;;2.40;;
9156;SDS011;4613;48.392;9.998;2023-05-07T10:03:42;2.40;;;2.20;;
9156;SDS011;4613;48.392;9.998;2023-05-07T10:06:33;2.83;;;2.60;;
9156;SDS011;4613;48.392;9.998;2023-05-07T10:09:23;2.63;;;2.37;;
9156;SDS011;4613;48.392;9.998;2023-05-07T10:12:15;2.50;;;2.30;;
9156;SDS011;4613;48.392;9.998;2023-05-07T10:15:06;3.07;;;2.30;;
9156;SDS011;4613;48.392;9.998;2023-05-07T10:18:00;2.40;;;2.20;;
9156;SDS011;4613;48.392;9.998;2023-05-07T10:20:52;2.20;;;2.00;;
9156;SDS011;4613;48.392;9.998;2023-05-07T10:23:56;2.50;;;2.20;;
9156;SDS011;4613;48.392;9.998;2023-05-07T10:27:09;2.17;;;1.90;;
9156;SDS011;4613;48.392;9.998;2023-05-07T10:32:57;2.60;;;2.40;;
9156;SDS011;4613;48.392;9.998;2023-05-07T10:35:55;2.77;;;2.50;;
9156;SDS011;4613;48.392;9.998;2023-05-07T10:38:48;2.60;;;2.40;;
9156;SDS011;4613;48.392;9.998;2023-05-07T10:41:39;2.77;;;2.57;;
9156;SDS011;4613;48.392;9.998;2023-05-07T10:44:29;2.47;;;2.27;;
9156;SDS011;4613;48.392;9.998;2023-05-07T10:47:23;2.27;;;2.07;;
9156;SDS011;4613;48.392;9.998;2023-05-07T11:02:10;2.30;;;2.13;;
9156;SDS011;4613;48.392;9.998;2023-05-07T11:05:22;2.83;;;2.07;;
9156;SDS011;4613;48.392;9.998;2023-05-07T11:11:44;2.80;;;2.60;;
9156;SDS011;4613;48.392;9.998;2023-05-07T11:15:01;2.50;;;2.30;;
9156;SDS011;4613;48.392;9.998;2023-05-07T11:17:58;2.97;;;2.50;;
9156;SDS011;4613;48.392;9.998;2023-05-07T11:20:54;2.87;;;2.40;;
9156;SDS011;4613;48.392;9.998;2023-05-07T11:24:07;1.90;;;1.80;;
9156;SDS011;4613;48.392;9.998;2023-05-07T11:27:06;2.17;;;1.97;;
9156;SDS011;4613;48.392;9.998;2023-05-07T11:29:55;2.07;;;1.97;;
9156;SDS011;4613;48.392;9.998;2023-05-07T11:32:47;2.30;;;2.10;;
9156;SDS011;4613;48.392;9.998;2023-05-07T11:35:38;2.40;;;2.20;;
9156;SDS011;4613;48.392;9.998;2023-05-07T11:38:36;2.20;;;2.00;;
9156;SDS011;4613;48.392;9.998;2023-05-07T11:41:35;2.30;;;2.10;;
9156;SDS011;4613;48.392;9.998;2023-05-07T11:44:44;2.40;;;2.20;;
9156;SDS011;4613;48.392;9.998;2023-05-07T11:47:34;2.63;;;2.33;;
9156;SDS011;4613;48.392;9.998;2023-05-07T11:50:23;2.40;;;2.20;;
9156;SDS011;4613;48.392;9.998;2023-05-07T11:53:13;2.27;;;2.07;;
9156;SDS011;4613;48.392;9.998;2023-05-07T11:56:09;2.07;;;1.97;;
9156;SDS011;4613;48.392;9.998;2023-05-07T11:59:00;2.23;;;1.93;;
9156;SDS011;4613;48.392;9.998;2023-05-07T12:01:49;2.10;;;1.90;;
9156;SDS011;4613;48.392;9.998;2023-05-07T12:04:38;2.20;;;2.10;;
9156;SDS011;4613;48.392;9.998;2023-05-07T12:07:28;2.20;;;2.00;;
9156;SDS011;4613;48.392;9.998;2023-05-07T12:10:18;1.93;;;1.80;;
9156;SDS011;4613;48.392;9.998;2023-05-07T12:13:19;2.40;;;2.20;;
9156;SDS011;4613;48.392;9.998;2023-05-07T12:16:10;4.73;;;1.93;;
9156;SDS011;4613;48.392;9.998;2023-05-07T12:18:59;1.90;;;1.80;;
9156;SDS011;4613;48.392;9.998;2023-05-07T12:21:49;1.90;;;1.80;;
9156;SDS011;4613;48.392;9.998;2023-05-07T12:24:49;1.80;;;1.70;;
9156;SDS011;4613;48.392;9.998;2023-05-07T12:27:50;1.70;;;1.60;;
9156;SDS011;4613;48.392;9.998;2023-05-07T12:30:42;1.87;;;1.77;;
9156;SDS011;4613;48.392;9.998;2023-05-07T12:33:31;1.70;;;1.60;;
9156;SDS011;4613;48.392;9.998;2023-05-07T12:36:22;1.70;;;1.60;;
9156;SDS011;4613;48.392;9.998;2023-05-07T12:39:11;1.80;;;1.70;;
9156;SDS011;4613;48.392;9.998;2023-05-07T12:42:00;2.13;;;1.93;;
9156;SDS011;4613;48.392;9.998;2023-05-07T12:44:49;1.93;;;1.73;;
9156;SDS011;4613;48.392;9.998;2023-05-07T12:47:43;1.70;;;1.60;;
9156;SDS011;4613;48.392;9.998;2023-05-07T12:50:35;1.70;;;1.60;;
9156;SDS011;4613;48.392;9.998;2023-05-07T12:53:25;1.67;;;1.57;;
9156;SDS011;4613;48.392;9.998;2023-05-07T12:56:16;1.60;;;1.47;;
9156;SDS011;4613;48.392;9.998;2023-05-07T12:59:05;1.53;;;1.43;;
9156;SDS011;4613;48.392;9.998;2023-05-07T13:01:54;1.70;;;1.60;;
9156;SDS011;4613;48.392;9.998;2023-05-07T13:04:44;1.30;;;1.30;;
9156;SDS011;4613;48.392;9.998;2023-05-07T13:07:33;1.97;;;1.87;;
9156;SDS011;4613;48.392;9.998;2023-05-07T13:10:23;1.97;;;1.80;;
9156;SDS011;4613;48.392;9.998;2023-05-07T13:13:13;1.87;;;1.50;;
9156;SDS011;4613;48.392;9.998;2023-05-07T13:16:02;1.60;;;1.50;;
9156;SDS011;4613;48.392;9.998;2023-05-07T13:18:53;2.40;;;2.20;;
9156;SDS011;4613;48.392;9.998;2023-05-07T13:21:43;1.60;;;1.43;;
9156;SDS011;4613;48.392;9.998;2023-05-07T13:24:32;1.50;;;1.40;;
9156;SDS011;4613;48.392;9.998;2023-05-07T13:27:22;1.30;;;1.30;;
9156;SDS011;4613;48.392;9.998;2023-05-07T13:30:11;1.60;;;1.50;;
9156;SDS011;4613;48.392;9.998;2023-05-07T13:33:00;1.50;;;1.40;;
9156;SDS011;4613;48.392;9.998;2023-05-07T13:35:50;1.60;;;1.50;;
9156;SDS011;4613;48.392;9.998;2023-05-07T13:38:39;1.50;;;1.40;;
9156;SDS011;4613;48.392;9.998;2023-05-07T13:41:29;2.20;;;1.97;;
9156;SDS011;4613;48.392;9.998;2023-05-07T13:44:19;1.60;;;1.50;;
9156;SDS011;4613;48.392;9.998;2023-05-07T13:47:10;1.70;;;1.50;;
9156;SDS011;4613;48.392;9.998;2023-05-07T13:50:03;1.73;;;1.63;;
9156;SDS011;4613;48.392;9.998;2023-05-07T13:52:53;1.20;;;1.20;;
9156;SDS011;4613;48.392;9.998;2023-05-07T13:55:42;1.60;;;1.50;;
9156;SDS011;4613;48.392;9.998;2023-05-07T13:58:32;1.50;;;1.40;;
9156;SDS011;4613;48.392;9.998;2023-05-07T14:01:21;1.70;;;1.60;;
9156;SDS011;4613;48.392;9.998;2023-05-07T14:04:11;1.70;;;1.60;;
9156;SDS011;4613;48.392;9.998;2023-05-07T14:07:00;1.20;;;1.20;;
9156;SDS011;4613;48.392;9.998;2023-05-07T14:09:50;1.60;;;1.50;;
9156;SDS011;4613;48.392;9.998;2023-05-07T14:12:41;1.60;;;1.50;;
9156;SDS011;4613;48.392;9.998;2023-05-07T14:15:30;1.10;;;1.10;;
9156;SDS011;4613;48.392;9.998;2023-05-07T14:18:20;1.20;;;1.20;;
9156;SDS011;4613;48.392;9.998;2023-05-07T14:21:09;1.50;;;1.37;;
9156;SDS011;4613;48.392;9.998;2023-05-07T14:23:59;1.60;;;1.50;;
9156;SDS011;4613;48.392;9.998;2023-05-07T14:26:49;1.40;;;1.30;;
9156;SDS011;4613;48.392;9.998;2023-05-07T14:29:38;1.67;;;1.40;;
9156;SDS011;4613;48.392;9.998;2023-05-07T14:32:29;1.40;;;1.30;;
9156;SDS011;4613;48.392;9.998;2023-05-07T14:35:18;1.13;;;1.13;;
9156;SDS011;4613;48.392;9.998;2023-05-07T14:38:08;1.40;;;1.30;;
9156;SDS011;4613;48.392;9.998;2023-05-07T14:40:58;1.10;;;1.10;;
9156;SDS011;4613;48.392;9.998;2023-05-07T14:43:47;1.37;;;1.27;;
9156;SDS011;4613;48.392;9.998;2023-05-07T14:46:40;1.60;;;1.50;;
9156;SDS011;4613;48.392;9.998;2023-05-07T14:49:29;1.20;;;1.20;;
9156;SDS011;4613;48.392;9.998;2023-05-07T14:52:18;1.83;;;1.43;;
9156;SDS011;4613;48.392;9.998;2023-05-07T14:55:08;1.80;;;1.23;;
9156;SDS011;4613;48.392;9.998;2023-05-07T14:57:57;1.50;;;1.40;;
9156;SDS011;4613;48.392;9.998;2023-05-07T15:01:05;2.27;;;1.90;;
9156;SDS011;4613;48.392;9.998;2023-05-07T15:03:57;1.50;;;1.37;;
9156;SDS011;4613;48.392;9.998;2023-05-07T15:06:46;1.43;;;1.33;;
9156;SDS011;4613;48.392;9.998;2023-05-07T15:09:36;1.60;;;1.50;;
9156;SDS011;4613;48.392;9.998;2023-05-07T15:12:25;1.57;;;1.40;;
9156;SDS011;4613;48.392;9.998;2023-05-07T15:15:14;1.33;;;1.30;;
9156;SDS011;4613;48.392;9.998;2023-05-07T15:18:04;2.03;;;1.50;;
9156;SDS011;4613;48.392;9.998;2023-05-07T15:20:55;1.50;;;1.40;;
9156;SDS011;4613;48.392;9.998;2023-05-07T15:23:44;1.30;;;1.30;;
9156;SDS011;4613;48.392;9.998;2023-05-07T15:26:34;1.57;;;1.47;;
9156;SDS011;4613;48.392;9.998;2023-05-07T15:29:23;1.30;;;1.27;;
9156;SDS011;4613;48.392;9.998;2023-05-07T15:32:12;2.10;;;1.90;;
9156;SDS011;4613;48.392;9.998;2023-05-07T15:35:02;1.70;;;1.60;;
9156;SDS011;4613;48.392;9.998;2023-05-07T15:37:52;1.70;;;1.60;;
9156;SDS011;4613;48.392;9.998;2023-05-07T15:40:42;2.13;;;1.93;;
9156;SDS011;4613;48.392;9.998;2023-05-07T15:43:31;1.90;;;1.80;;
9156;SDS011;4613;48.392;9.998;2023-05-07T15:46:21;1.77;;;1.67;;
9156;SDS011;4613;48.392;9.998;2023-05-07T15:49:12;1.73;;;1.63;;
9156;SDS011;4613;48.392;9.998;2023-05-07T15:52:02;1.70;;;1.60;;
9156;SDS011;4613;48.392;9.998;2023-05-07T15:54:51;1.57;;;1.47;;
9156;SDS011;4613;48.392;9.998;2023-05-07T15:57:41;3.37;;;1.63;;
9156;SDS011;4613;48.392;9.998;2023-05-07T16:00:31;1.60;;;1.50;;
9156;SDS011;4613;48.392;9.998;2023-05-07T16:03:20;1.73;;;1.60;;
9156;SDS011;4613;48.392;9.998;2023-05-07T16:06:10;1.67;;;1.57;;
9156;SDS011;4613;48.392;9.998;2023-05-07T16:09:00;1.50;;;1.40;;
9156;SDS011;4613;48.392;9.998;2023-05-07T16:11:49;3.77;;;2.00;;
9156;SDS011;4613;48.392;9.998;2023-05-07T16:14:39;2.63;;;1.60;;
9156;SDS011;4613;48.392;9.998;2023-05-07T16:17:29;1.90;;;1.67;;
9156;SDS011;4613;48.392;9.998;2023-05-07T16:20:18;2.13;;;1.60;;
9156;SDS011;4613;48.392;9.998;2023-05-07T16:23:09;1.67;;;1.40;;
9156;SDS011;4613;48.392;9.998;2023-05-07T16:26:00;1.70;;;1.60;;
9156;SDS011;4613;48.392;9.998;2023-05-07T16:28:49;1.87;;;1.43;;
9156;SDS011;4613;48.392;9.998;2023-05-07T16:31:40;1.47;;;1.37;;
9156;SDS011;4613;48.392;9.998;2023-05-07T16:34:29;1.70;;;1.60;;
9156;SDS011;4613;48.392;9.998;2023-05-07T16:37:19;1.67;;;1.57;;
9156;SDS011;4613;48.392;9.998;2023-05-07T16:40:09;1.70;;;1.60;;
9156;SDS011;4613;48.392;9.998;2023-05-07T16:42:58;3.63;;;1.90;;
9156;SDS011;4613;48.392;9.998;2023-05-07T16:45:48;2.00;;;1.87;;
9156;SDS011;4613;48.392;9.998;2023-05-07T16:48:37;2.37;;;2.17;;
9156;SDS011;4613;48.392;9.998;2023-05-07T16:51:26;2.50;;;2.10;;
9156;SDS011;4613;48.392;9.998;2023-05-07T16:54:16;2.40;;;2.20;;
9156;SDS011;4613;48.392;9.998;2023-05-07T16:57:06;2.40;;;2.20;;
9156;SDS011;4613;48.392;9.998;2023-05-07T16:59:55;2.40;;;2.20;;
9156;SDS011;4613;48.392;9.998;2023-05-07T17:02:46;4.80;;;1.90;;
9156;SDS011;4613;48.392;9.998;2023-05-07T17:05:36;3.70;;;1.97;;
9156;SDS011;4613;48.392;9.998;2023-05-07T17:08:26;2.50;;;2.30;;
9156;SDS011;4613;48.392;9.998;2023-05-07T17:11:16;1.80;;;1.70;;
9156;SDS011;4613;48.392;9.998;2023-05-07T17:14:05;2.23;;;2.03;;
9156;SDS011;4613;48.392;9.998;2023-05-07T17:16:54;1.60;;;1.50;;
9156;SDS011;4613;48.392;9.998;2023-05-07T17:19:45;1.40;;;1.30;;
9156;SDS011;4613;48.392;9.998;2023-05-07T17:22:34;1.40;;;1.30;;
9156;SDS011;4613;48.392;9.998;2023-05-07T17:25:24;1.30;;;1.20;;
9156;SDS011;4613;48.392;9.998;2023-05-07T17:28:13;2.40;;;1.80;;
9156;SDS011;4613;48.392;9.998;2023-05-07T17:31:03;1.30;;;1.20;;
9156;SDS011;4613;48.392;9.998;2023-05-07T17:33:52;1.10;;;1.10;;
9156;SDS011;4613;48.392;9.998;2023-05-07T17:36:42;0.90;;;0.90;;
9156;SDS011;4613;48.392;9.998;2023-05-07T17:39:31;1.00;;;1.00;;
9156;SDS011;4613;48.392;9.998;2023-05-07T17:42:21;2.83;;;1.00;;
9156;SDS011;4613;48.392;9.998;2023-05-07T17:45:11;0.80;;;0.80;;
9156;SDS011;4613;48.392;9.998;2023-05-07T17:48:00;0.87;;;0.87;;
9156;SDS011;4613;48.392;9.998;2023-05-07T17:50:50;0.90;;;0.90;;
9156;SDS011;4613;48.392;9.998;2023-05-07T17:53:41;1.00;;;1.00;;
9156;SDS011;4613;48.392;9.998;2023-05-07T17:56:30;0.90;;;0.90;;
9156;SDS011;4613;48.392;9.998;2023-05-07T17:59:20;0.93;;;0.93;;
9156;SDS011;4613;48.392;9.998;2023-05-07T18:02:09;1.00;;;1.00;;